createdAt,value
2023-04-17T00:01:56.690Z,86.30
2023-04-17T00:04:25.749Z,86.40
2023-04-17T00:06:55.193Z,86.20
2023-04-17T00:09:23.151Z,86.50
2023-04-17T00:11:51.089Z,86.60
2023-04-17T00:14:20.317Z,86.50
2023-04-17T00:16:48.342Z,86.60
2023-04-17T00:19:18.565Z,86.60
2023-04-17T00:21:46.499Z,86.90
2023-04-17T00:24:14.692Z,86.90
2023-04-17T00:26:42.643Z,86.80
2023-04-17T00:29:10.726Z,86.80
2023-04-17T00:31:40.325Z,86.90
2023-04-17T00:34:08.364Z,87.00
2023-04-17T00:36:36.342Z,87.30
2023-04-17T00:39:04.320Z,87.30
2023-04-17T00:41:32.215Z,87.50
2023-04-17T00:44:00.332Z,87.40
2023-04-17T00:46:28.748Z,87.30
2023-04-17T00:48:58.113Z,87.30
2023-04-17T00:51:26.151Z,87.60
2023-04-17T00:53:54.329Z,87.60
2023-04-17T00:56:22.396Z,88.00
2023-04-17T00:58:51.186Z,88.00
2023-04-17T01:01:19.216Z,88.10
2023-04-17T01:03:47.604Z,88.30
2023-04-17T01:06:17.433Z,88.20
2023-04-17T01:08:45.978Z,88.40
2023-04-17T01:11:13.930Z,88.50
2023-04-17T01:13:48.406Z,88.40
2023-04-17T01:16:16.605Z,88.40
2023-04-17T01:18:44.520Z,88.40
2023-04-17T01:21:12.474Z,88.50
2023-04-17T01:23:47.016Z,88.50
2023-04-17T01:26:20.926Z,88.50
2023-04-17T01:28:52.955Z,88.70
2023-04-17T01:31:21.214Z,88.50
2023-04-17T01:33:49.949Z,88.40
2023-04-17T01:36:18.295Z,88.40
2023-04-17T01:38:46.558Z,88.40
2023-04-17T01:41:14.827Z,88.20
2023-04-17T01:43:46.191Z,88.10
2023-04-17T01:46:14.408Z,88.10
2023-04-17T01:48:42.501Z,88.20
2023-04-17T01:51:10.389Z,88.40
2023-04-17T01:53:39.986Z,88.50
2023-04-17T01:56:08.540Z,88.40
2023-04-17T01:58:36.477Z,88.50
2023-04-17T02:01:06.504Z,88.80
2023-04-17T02:03:34.621Z,89.00
2023-04-17T02:06:02.672Z,89.00
2023-04-17T02:08:30.747Z,89.00
2023-04-17T02:10:58.608Z,88.90
2023-04-17T02:13:26.488Z,88.80
2023-04-17T02:15:54.594Z,88.80
2023-04-17T02:18:23.990Z,88.90
2023-04-17T02:20:51.948Z,89.10
2023-04-17T02:23:19.872Z,89.00
2023-04-17T02:25:47.856Z,89.10
2023-04-17T02:28:15.955Z,89.40
2023-04-17T02:30:45.637Z,89.20
2023-04-17T02:33:13.607Z,89.30
2023-04-17T02:35:42.939Z,89.50
2023-04-17T02:38:10.850Z,89.60
2023-04-17T02:40:38.955Z,89.50
2023-04-17T02:43:06.838Z,89.50
2023-04-17T02:45:34.766Z,89.50
2023-04-17T02:48:03.182Z,89.60
2023-04-17T02:50:31.183Z,89.50
2023-04-17T02:53:00.693Z,89.80
2023-04-17T02:55:28.536Z,89.90
2023-04-17T02:57:56.515Z,89.90
2023-04-17T03:00:24.696Z,89.70
2023-04-17T03:02:52.853Z,90.00
2023-04-17T03:05:21.760Z,90.00
2023-04-17T03:07:49.705Z,90.10
2023-04-17T03:10:19.336Z,90.30
2023-04-17T03:12:47.234Z,89.90
2023-04-17T03:15:15.179Z,89.80
2023-04-17T03:17:43.180Z,89.80
2023-04-17T03:20:11.358Z,89.90
2023-04-17T03:22:39.474Z,89.90
2023-04-17T03:25:08.138Z,89.50
2023-04-17T03:27:38.621Z,89.50
2023-04-17T03:30:08.126Z,89.70
2023-04-17T03:32:36.169Z,89.60
2023-04-17T03:35:04.225Z,89.60
2023-04-17T03:37:32.445Z,89.80
2023-04-17T03:40:00.460Z,89.80
2023-04-17T03:42:28.487Z,89.80
2023-04-17T03:44:57.792Z,89.80
2023-04-17T03:47:25.777Z,89.60
2023-04-17T03:49:53.784Z,89.50
2023-04-17T03:52:21.693Z,89.50
2023-04-17T03:54:49.752Z,89.40
2023-04-17T03:57:17.727Z,89.50
2023-04-17T03:59:45.962Z,89.50
2023-04-17T04:02:15.281Z,89.40
2023-04-17T04:04:43.513Z,89.60
2023-04-17T04:07:11.569Z,89.30
2023-04-17T04:09:39.463Z,89.20
2023-04-17T04:12:08.372Z,89.40
2023-04-17T04:14:39.137Z,89.50
2023-04-17T04:17:08.287Z,89.50
2023-04-17T04:19:37.711Z,89.50
2023-04-17T04:22:06.844Z,89.40
2023-04-17T04:24:35.324Z,89.10
2023-04-17T04:27:05.077Z,89.20
2023-04-17T04:29:33.442Z,89.00
2023-04-17T04:32:02.250Z,88.70
2023-04-17T04:34:30.238Z,88.70
2023-04-17T04:36:59.587Z,88.90
2023-04-17T04:39:29.940Z,89.10
2023-04-17T04:42:05.646Z,89.20
2023-04-17T04:44:33.630Z,88.90
2023-04-17T04:47:01.759Z,88.90
2023-04-17T04:49:29.870Z,88.90
2023-04-17T04:51:59.258Z,88.90
2023-04-17T04:54:27.208Z,88.50
2023-04-17T04:56:55.201Z,88.70
2023-04-17T04:59:23.066Z,88.60
2023-04-17T05:01:51.161Z,88.60
2023-04-17T05:04:19.218Z,88.60
2023-04-17T05:06:47.711Z,88.50
2023-04-17T05:09:17.399Z,88.30
2023-04-17T05:11:45.558Z,88.20
2023-04-17T05:14:13.477Z,88.20
2023-04-17T05:16:41.618Z,88.30
2023-04-17T05:19:09.641Z,88.50
2023-04-17T05:21:37.677Z,88.40
2023-04-17T05:24:05.644Z,88.00
2023-04-17T05:26:34.995Z,88.00
2023-04-17T05:29:03.102Z,88.10
2023-04-17T05:31:31.188Z,88.10
2023-04-17T05:33:59.079Z,88.00
2023-04-17T05:36:27.706Z,87.70
2023-04-17T05:38:56.814Z,87.60
2023-04-17T05:41:24.748Z,87.40
2023-04-17T05:43:54.029Z,87.60
2023-04-17T05:46:22.000Z,87.50
2023-04-17T05:48:50.167Z,87.20
2023-04-17T05:51:18.115Z,87.40
2023-04-17T05:53:46.177Z,87.20
2023-04-17T05:56:14.053Z,87.10
2023-04-17T05:58:41.918Z,87.20
2023-04-17T06:01:13.004Z,86.60
2023-04-17T06:03:41.121Z,86.60
2023-04-17T06:06:09.195Z,86.50
2023-04-17T06:08:37.065Z,86.30
2023-04-17T06:11:05.113Z,85.90
2023-04-17T06:13:33.518Z,86.00
2023-04-17T06:16:01.391Z,85.90
2023-04-17T06:18:30.702Z,85.70
2023-04-17T06:20:58.645Z,85.20
2023-04-17T06:23:26.553Z,85.00
2023-04-17T06:25:54.427Z,85.20
2023-04-17T06:28:22.344Z,85.30
2023-04-17T06:30:50.324Z,85.10
2023-04-17T06:33:18.209Z,84.80
2023-04-17T06:35:47.494Z,84.90
2023-04-17T06:38:15.463Z,84.80
2023-04-17T06:40:43.339Z,84.00
2023-04-17T06:43:11.230Z,83.70
2023-04-17T06:45:45.617Z,83.80
2023-04-17T06:48:13.566Z,83.90
2023-04-17T06:50:41.445Z,83.70
2023-04-17T06:53:10.716Z,83.60
2023-04-17T06:55:38.592Z,83.50
2023-04-17T06:58:08.393Z,83.00
2023-04-17T07:00:36.324Z,82.80
2023-04-17T07:03:04.316Z,83.10
2023-04-17T07:05:32.268Z,82.70
2023-04-17T07:08:00.309Z,82.60
2023-04-17T07:10:29.647Z,82.10
2023-04-17T07:12:57.592Z,82.00
2023-04-17T07:15:26.711Z,81.90
2023-04-17T07:17:55.042Z,81.40
2023-04-17T07:20:23.135Z,81.20
2023-04-17T07:22:51.096Z,80.40
2023-04-17T07:25:19.807Z,80.10
2023-04-17T07:27:49.092Z,79.40
2023-04-17T07:30:17.146Z,80.00
2023-04-17T07:32:45.041Z,79.20
2023-04-17T07:35:12.975Z,78.60
2023-04-17T07:37:41.186Z,78.80
2023-04-17T07:40:11.129Z,78.90
2023-04-17T07:42:39.312Z,78.40
2023-04-17T07:45:10.032Z,77.70
2023-04-17T07:47:38.050Z,77.30
2023-04-17T07:50:06.908Z,76.80
2023-04-17T07:52:34.802Z,77.00
2023-04-17T07:55:02.706Z,75.60
2023-04-17T07:57:30.599Z,75.80
2023-04-17T07:59:58.493Z,76.00
2023-04-17T08:02:27.975Z,75.30
2023-04-17T08:04:56.540Z,74.40
2023-04-17T08:07:24.451Z,74.60
2023-04-17T08:09:52.291Z,74.60
2023-04-17T08:12:20.604Z,74.70
2023-04-17T08:14:48.797Z,73.80
2023-04-17T08:20:11.998Z,72.90
2023-04-17T08:22:41.444Z,70.40
2023-04-17T08:25:10.751Z,71.70
2023-04-17T08:27:39.801Z,69.90
2023-04-17T08:30:12.577Z,68.80
2023-04-17T08:32:42.547Z,69.50
2023-04-17T08:35:13.723Z,67.40
2023-04-17T08:37:42.596Z,69.10
2023-04-17T08:40:11.097Z,68.70
2023-04-17T08:42:40.714Z,65.10
2023-04-17T08:45:10.923Z,66.50
2023-04-17T08:47:40.478Z,63.80
2023-04-17T08:50:12.417Z,66.00
2023-04-17T08:52:42.433Z,64.90
2023-04-17T08:55:11.669Z,64.30
2023-04-17T08:57:55.257Z,62.70
2023-04-17T09:00:27.278Z,61.80
2023-04-17T09:02:56.256Z,62.40
2023-04-17T09:05:27.041Z,62.70
2023-04-17T09:08:09.301Z,63.80
2023-04-17T09:10:38.257Z,63.30
2023-04-17T09:13:06.979Z,61.80
2023-04-17T09:15:35.813Z,62.40
2023-04-17T09:18:04.260Z,61.80
2023-04-17T09:20:33.599Z,59.60
2023-04-17T09:23:03.030Z,61.40
2023-04-17T09:25:31.405Z,58.70
2023-04-17T09:28:12.729Z,58.70
2023-04-17T09:30:41.746Z,59.60
2023-04-17T09:33:11.729Z,57.30
2023-04-17T09:35:41.041Z,59.10
2023-04-17T09:38:08.966Z,55.80
2023-04-17T09:40:41.120Z,56.00
2023-04-17T09:43:10.596Z,56.70
2023-04-17T09:45:42.349Z,58.00
2023-04-17T09:48:12.530Z,58.20
2023-04-17T09:50:41.962Z,57.10
2023-04-17T09:53:10.284Z,55.50
2023-04-17T09:55:39.276Z,54.20
2023-04-17T09:58:08.665Z,55.10
2023-04-17T10:00:37.878Z,53.60
2023-04-17T10:03:06.355Z,53.60
2023-04-17T10:05:34.327Z,57.80
2023-04-17T10:08:04.261Z,56.60
2023-04-17T10:10:34.197Z,55.80
2023-04-17T10:13:04.086Z,55.50
2023-04-17T10:15:33.713Z,56.60
2023-04-17T10:18:19.850Z,56.80
2023-04-17T10:20:48.826Z,55.40
2023-04-17T10:23:32.290Z,54.70
2023-04-17T10:26:39.164Z,54.40
2023-04-17T10:29:07.105Z,55.70
2023-04-17T10:32:28.956Z,55.70
2023-04-17T10:34:58.964Z,52.90
2023-04-17T10:38:07.676Z,54.10
2023-04-17T10:40:37.376Z,52.20
2023-04-17T10:43:12.289Z,53.20
2023-04-17T10:45:56.243Z,53.30
2023-04-17T10:48:29.156Z,51.50
2023-04-17T10:50:57.596Z,52.90
2023-04-17T10:53:43.316Z,46.70
2023-04-17T10:56:18.135Z,46.40
2023-04-17T10:58:59.579Z,47.10
2023-04-17T11:01:30.009Z,47.60
2023-04-17T11:03:59.570Z,46.60
2023-04-17T11:06:29.346Z,49.10
2023-04-17T11:08:58.466Z,50.00
2023-04-17T11:11:40.595Z,48.30
2023-04-17T11:14:14.792Z,45.80
2023-04-17T11:16:44.323Z,48.00
2023-04-17T11:19:13.824Z,45.00
2023-04-17T11:21:43.798Z,47.30
2023-04-17T11:24:12.015Z,48.10
2023-04-17T11:26:44.802Z,47.10
2023-04-17T11:29:16.555Z,47.90
2023-04-17T11:31:45.555Z,45.60
2023-04-17T11:34:15.461Z,45.80
2023-04-17T11:36:50.263Z,45.10
2023-04-17T11:39:18.489Z,45.00
2023-04-17T11:41:47.815Z,45.90
2023-04-17T11:44:16.524Z,43.60
2023-04-17T11:46:44.438Z,46.20
2023-04-17T11:49:12.813Z,44.20
2023-04-17T11:51:40.953Z,44.30
2023-04-17T11:54:08.790Z,43.40
2023-04-17T11:56:36.888Z,41.60
2023-04-17T11:59:06.037Z,41.70
2023-04-17T12:01:33.948Z,41.30
2023-04-17T12:04:02.063Z,42.10
2023-04-17T12:06:37.614Z,42.80
2023-04-17T12:09:07.128Z,45.50
2023-04-17T12:11:35.764Z,43.60
2023-04-17T12:14:12.082Z,42.80
2023-04-17T12:16:40.340Z,41.40
2023-04-17T12:19:09.063Z,44.80
2023-04-17T12:21:36.931Z,42.80
2023-04-17T12:24:04.885Z,41.00
2023-04-17T12:26:32.699Z,41.50
2023-04-17T12:29:00.846Z,40.50
2023-04-17T12:31:30.786Z,41.50
2023-04-17T12:33:58.658Z,39.50
2023-04-17T12:36:26.558Z,38.90
2023-04-17T12:38:54.435Z,42.60
2023-04-17T12:41:22.298Z,39.30
2023-04-17T12:43:50.398Z,40.30
2023-04-17T12:46:18.480Z,37.40
2023-04-17T12:48:47.813Z,39.50
2023-04-17T12:51:15.616Z,38.60
2023-04-17T12:53:43.466Z,39.20
2023-04-17T12:56:11.299Z,37.90
2023-04-17T12:58:39.105Z,38.10
2023-04-17T13:01:07.227Z,36.40
2023-04-17T13:03:35.418Z,37.00
2023-04-17T13:06:05.296Z,37.20
2023-04-17T13:08:33.133Z,39.90
2023-04-17T13:11:03.625Z,39.00
2023-04-17T13:13:31.539Z,39.60
2023-04-17T13:15:59.797Z,41.20
2023-04-17T13:18:27.730Z,39.80
2023-04-17T13:20:55.898Z,39.80
2023-04-17T13:23:25.177Z,40.30
2023-04-17T13:25:53.382Z,40.70
2023-04-17T13:28:21.196Z,42.40
2023-04-17T13:30:49.647Z,44.50
2023-04-17T13:33:17.627Z,43.70
2023-04-17T13:35:45.516Z,43.60
2023-04-17T13:38:13.378Z,41.30
2023-04-17T13:40:42.592Z,42.50
2023-04-17T13:43:10.605Z,44.10
2023-04-17T13:45:38.579Z,41.40
2023-04-17T13:48:06.733Z,39.20
2023-04-17T13:50:34.733Z,39.60
2023-04-17T13:53:02.963Z,41.30
2023-04-17T13:55:30.941Z,39.10
2023-04-17T13:58:00.988Z,40.20
2023-04-17T14:00:28.894Z,40.60
2023-04-17T14:02:56.917Z,42.60
2023-04-17T14:05:24.882Z,40.70
2023-04-17T14:07:52.796Z,40.90
2023-04-17T14:10:20.751Z,40.10
2023-04-17T14:12:48.573Z,40.80
2023-04-17T14:15:17.894Z,41.90
2023-04-17T14:17:45.903Z,43.00
2023-04-17T14:20:18.358Z,39.40
2023-04-17T14:22:47.155Z,42.10
2023-04-17T14:25:16.082Z,42.80
2023-04-17T14:27:43.939Z,40.80
2023-04-17T14:30:12.078Z,39.10
2023-04-17T14:32:41.442Z,38.90
2023-04-17T14:35:10.167Z,40.30
2023-04-17T14:37:38.912Z,38.70
2023-04-17T14:40:08.149Z,36.50
2023-04-17T14:42:47.344Z,37.80
2023-04-17T14:45:21.210Z,40.30
2023-04-17T14:47:50.518Z,41.40
2023-04-17T14:50:18.611Z,42.70
2023-04-17T14:52:46.475Z,44.20
2023-04-17T14:55:14.396Z,43.50
2023-04-17T14:57:42.265Z,43.30
2023-04-17T15:00:10.994Z,40.90
2023-04-17T15:02:39.375Z,41.40
2023-04-17T15:05:10.200Z,42.70
2023-04-17T15:07:38.060Z,43.20
2023-04-17T15:10:06.689Z,43.30
2023-04-17T15:12:34.602Z,43.50
2023-04-17T15:15:02.531Z,42.90
2023-04-17T15:17:30.613Z,43.10
2023-04-17T15:20:00.531Z,43.70
2023-04-17T15:22:29.820Z,43.00
2023-04-17T15:24:57.717Z,42.10
2023-04-17T15:27:25.725Z,41.90
2023-04-17T15:29:53.621Z,42.30
2023-04-17T15:32:21.658Z,42.50
2023-04-17T15:34:49.654Z,40.70
2023-04-17T15:37:17.571Z,40.70
2023-04-17T15:39:46.827Z,41.30
2023-04-17T15:42:14.657Z,42.30
2023-04-17T15:44:42.738Z,41.50
2023-04-17T15:47:10.697Z,43.00
2023-04-17T15:49:38.541Z,40.70
2023-04-17T15:52:07.604Z,42.90
2023-04-17T15:54:36.058Z,43.40
2023-04-17T15:57:05.416Z,42.20
2023-04-17T15:59:33.412Z,43.50
2023-04-17T16:02:01.637Z,41.90
2023-04-17T16:04:29.756Z,41.70
2023-04-17T16:06:57.741Z,41.50
2023-04-17T16:09:25.616Z,40.30
2023-04-17T16:11:53.449Z,39.80
2023-04-17T16:14:22.747Z,40.90
2023-04-17T16:16:50.598Z,43.10
2023-04-17T16:19:18.462Z,43.10
2023-04-17T16:21:46.299Z,45.00
2023-04-17T16:24:14.178Z,45.80
2023-04-17T16:26:42.684Z,44.80
2023-04-17T16:29:10.829Z,45.90
2023-04-17T16:31:41.222Z,46.50
2023-04-17T16:34:09.512Z,48.00
2023-04-17T16:36:37.700Z,48.70
2023-04-17T16:39:07.400Z,48.10
2023-04-17T16:41:35.293Z,51.40
2023-04-17T16:44:03.174Z,50.40
2023-04-17T16:46:45.669Z,48.60
2023-04-17T16:49:20.416Z,46.60
2023-04-17T16:51:48.293Z,47.30
2023-04-17T16:54:16.292Z,47.80
2023-04-17T16:56:44.178Z,48.00
2023-04-17T16:59:12.349Z,49.30
2023-04-17T17:01:40.406Z,48.80
2023-04-17T17:04:08.389Z,47.30
2023-04-17T17:06:37.785Z,47.70
2023-04-17T17:09:06.040Z,45.90
2023-04-17T17:11:33.962Z,46.40
2023-04-17T17:14:01.827Z,43.50
2023-04-17T17:16:29.761Z,44.70
2023-04-17T17:18:57.648Z,46.30
2023-04-17T17:21:26.350Z,48.50
2023-04-17T17:23:55.618Z,50.10
2023-04-17T17:26:23.523Z,51.60
2023-04-17T17:28:53.194Z,52.50
2023-04-17T17:31:21.722Z,52.30
2023-04-17T17:33:52.903Z,53.50
2023-04-17T17:36:21.468Z,54.90
2023-04-17T17:38:55.172Z,53.30
2023-04-17T17:41:24.484Z,55.60
2023-04-17T17:43:52.549Z,57.70
2023-04-17T17:46:21.133Z,57.00
2023-04-17T17:48:49.204Z,57.20
2023-04-17T17:51:17.099Z,55.70
2023-04-17T17:53:44.990Z,55.40
2023-04-17T17:56:12.869Z,56.40
2023-04-17T17:58:42.085Z,53.80
2023-04-17T18:01:10.021Z,55.00
2023-04-17T18:03:37.986Z,55.60
2023-04-17T18:06:06.094Z,54.90
2023-04-17T18:08:34.417Z,56.80
2023-04-17T18:11:02.467Z,57.60
2023-04-17T18:13:30.368Z,55.80
2023-04-17T18:15:59.747Z,58.20
2023-04-17T18:18:27.624Z,58.90
2023-04-17T18:20:55.476Z,58.60
2023-04-17T18:23:23.382Z,59.80
2023-04-17T18:25:58.588Z,59.30
2023-04-17T18:28:26.536Z,58.80
2023-04-17T18:30:54.551Z,60.40
2023-04-17T18:33:23.843Z,61.80
2023-04-17T18:35:51.816Z,61.40
2023-04-17T18:38:19.756Z,62.00
2023-04-17T18:40:47.625Z,62.10
2023-04-17T18:43:15.504Z,62.30
2023-04-17T18:45:43.332Z,63.30
2023-04-17T18:48:11.184Z,64.00
2023-04-17T18:50:40.536Z,63.10
2023-04-17T18:53:08.446Z,64.10
2023-04-17T18:55:38.214Z,64.10
2023-04-17T18:58:06.312Z,64.40
2023-04-17T19:00:34.286Z,65.10
2023-04-17T19:03:02.253Z,65.40
2023-04-17T19:05:30.160Z,65.70
2023-04-17T19:07:59.484Z,66.10
2023-04-17T19:10:27.386Z,66.30
2023-04-17T19:12:55.287Z,66.70
2023-04-17T19:15:24.205Z,67.10
2023-04-17T19:17:52.645Z,67.80
2023-04-17T19:20:22.653Z,67.50
2023-04-17T19:22:50.576Z,66.90
2023-04-17T19:25:20.054Z,67.00
2023-04-17T19:27:47.917Z,67.50
2023-04-17T19:30:15.811Z,68.00
2023-04-17T19:32:43.881Z,64.50
2023-04-17T19:35:11.819Z,65.80
2023-04-17T19:37:39.733Z,64.80
2023-04-17T19:40:21.460Z,64.60
2023-04-17T19:42:53.457Z,64.80
2023-04-17T19:45:21.462Z,65.00
2023-04-17T19:47:54.902Z,66.20
2023-04-17T19:50:23.646Z,65.80
2023-04-17T19:52:51.894Z,66.50
2023-04-17T19:55:20.585Z,67.20
2023-04-17T19:57:50.200Z,67.90
2023-04-17T20:00:19.841Z,68.20
2023-04-17T20:02:48.165Z,68.00
2023-04-17T20:05:18.108Z,69.10
2023-04-17T20:07:46.016Z,69.50
2023-04-17T20:10:13.915Z,69.00
2023-04-17T20:12:41.777Z,63.90
2023-04-17T20:15:10.895Z,65.40
2023-04-17T20:17:40.319Z,64.20
2023-04-17T20:20:09.220Z,60.20
2023-04-17T20:22:37.113Z,59.80
2023-04-17T20:25:05.522Z,56.50
2023-04-17T20:27:33.506Z,55.70
2023-04-17T20:30:01.398Z,50.50
2023-04-17T20:32:29.308Z,50.10
2023-04-17T20:34:58.626Z,49.40
2023-04-17T20:37:26.643Z,49.30
2023-04-17T20:39:54.605Z,50.80
2023-04-17T20:42:22.486Z,49.60
2023-04-17T20:44:50.407Z,50.00
2023-04-17T20:47:18.356Z,50.40
2023-04-17T20:49:46.200Z,51.40
2023-04-17T20:52:15.545Z,49.70
2023-04-17T20:54:43.528Z,50.40
2023-04-17T20:57:11.448Z,50.10
2023-04-17T20:59:39.443Z,51.20
2023-04-17T21:02:07.477Z,52.70
2023-04-17T21:04:35.565Z,53.90
2023-04-17T21:07:03.764Z,55.20
2023-04-17T21:09:33.080Z,56.60
2023-04-17T21:12:01.677Z,57.30
2023-04-17T21:14:30.339Z,56.70
2023-04-17T21:16:58.483Z,56.30
2023-04-17T21:19:27.325Z,54.80
2023-04-17T21:21:55.495Z,55.80
2023-04-17T21:24:23.457Z,56.70
2023-04-17T21:26:54.061Z,58.00
2023-04-17T21:29:21.976Z,58.50
2023-04-17T21:31:49.907Z,58.20
2023-04-17T21:34:17.806Z,59.40
2023-04-17T21:36:45.662Z,61.10
2023-04-17T21:39:13.575Z,60.80
2023-04-17T21:41:41.477Z,59.10
2023-04-17T21:44:11.384Z,60.80
2023-04-17T21:46:39.819Z,61.20
2023-04-17T21:49:07.748Z,61.20
2023-04-17T21:51:35.891Z,61.40
2023-04-17T21:54:04.127Z,60.00
2023-04-17T21:56:32.475Z,61.00
2023-04-17T21:59:00.479Z,60.60
2023-04-17T22:01:29.891Z,61.20
2023-04-17T22:03:57.882Z,62.10
2023-04-17T22:06:26.069Z,63.20
2023-04-17T22:08:53.999Z,64.00
2023-04-17T22:11:22.973Z,64.50
2023-04-17T22:13:50.846Z,64.20
2023-04-17T22:16:18.751Z,63.70
2023-04-17T22:18:48.163Z,64.10
2023-04-17T22:21:16.064Z,64.70
2023-04-17T22:23:43.979Z,64.10
2023-04-17T22:26:11.935Z,64.50
2023-04-17T22:28:39.900Z,63.70
2023-04-17T22:31:07.941Z,64.60
2023-04-17T22:33:35.852Z,64.50
2023-04-17T22:36:05.332Z,64.70
2023-04-17T22:38:33.252Z,64.90
2023-04-17T22:41:01.431Z,65.50
2023-04-17T22:43:29.301Z,65.20
2023-04-17T22:45:57.340Z,65.90
2023-04-17T22:48:25.555Z,64.90
2023-04-17T22:50:53.640Z,65.40
2023-04-17T22:53:23.006Z,66.30
2023-04-17T22:56:01.220Z,66.10
2023-04-17T22:58:29.149Z,67.00
2023-04-17T23:00:57.066Z,67.50
2023-04-17T23:03:24.938Z,68.00
2023-04-17T23:05:54.530Z,67.10
2023-04-17T23:08:24.173Z,67.30
2023-04-17T23:10:59.366Z,67.30
2023-04-17T23:13:27.575Z,68.80
2023-04-17T23:15:55.636Z,68.60
2023-04-17T23:18:23.689Z,69.10
2023-04-17T23:20:51.516Z,68.50
2023-04-17T23:23:19.464Z,69.50
2023-04-17T23:25:48.779Z,70.70
2023-04-17T23:28:16.692Z,70.40
2023-04-17T23:30:44.596Z,70.40
2023-04-17T23:33:12.472Z,69.90
2023-04-17T23:35:40.386Z,69.90
2023-04-17T23:38:08.320Z,70.80
2023-04-17T23:40:36.330Z,71.90
2023-04-17T23:43:06.010Z,71.80
2023-04-17T23:45:34.035Z,72.70
2023-04-17T23:48:02.032Z,72.70
2023-04-17T23:50:30.013Z,72.40
2023-04-17T23:52:57.956Z,73.10
2023-04-17T23:55:26.619Z,72.80
2023-04-17T23:57:54.571Z,73.20
